64.9°F
Current conditions from King Hill
Updated every 5 minutes
 
  Saturday September 20, 2014

Station Historical Data
Daily Summary for July 21, 2012 Units:  Both    English   Metric
« Previous Day
Next Day »
Daily Weekly Monthly Yearly Custom
  High: Low: Average:
Temperature: 82.5 °F /  28.1 °C 48.4 °F /  9.1 °C 66.1 °F /  18.9 °C
Dew Point: 60.8 °F /  16 °C 47.0 °F /  8.3 °C 54.4 °F /  12.4 °C
Humidity: 96% 41% 70%
Wind Speed: 5.0mph /  8km/h - 1.5mph /  2.4km/h
Wind Gust: 12.0mph /  19.3km/h - -
Wind- - SW
Pressure: 30.07 in /  1018.2 hPa 29.95 in /  1014.1 hPa -
Precipitation: 0.00 in /  0 mm    
Historical Graphs
 
 
Tabular Data for July 21, 2012
Time Temperature Dew Point Pressure Wind Wind Speed Wind Gust Humidity Daily Rainfall
00:04 52.2 °F /  11.2 °C 48.8 °F /  9.3 °C 30.03in /  1016.8hPa Calm     88% 0.00in /  0mm
00:09 52.2 °F /  11.2 °C 48.8 °F /  9.3 °C 30.02in /  1016.5hPa Calm     88% 0.00in /  0mm
00:14 52.1 °F /  11.2 °C 48.7 °F /  9.3 °C 30.02in /  1016.5hPa Calm     88% 0.00in /  0mm
00:19 51.9 °F /  11.1 °C 48.5 °F /  9.2 °C 30.02in /  1016.5hPa Calm     88% 0.00in /  0mm
00:24 51.9 °F /  11.1 °C 48.8 °F /  9.3 °C 30.03in /  1016.8hPa Calm     89% 0.00in /  0mm
00:29 51.9 °F /  11.1 °C 48.8 °F /  9.3 °C 30.03in /  1016.8hPa Calm     89% 0.00in /  0mm
00:34 51.7 °F /  10.9 °C 48.6 °F /  9.2 °C 30.02in /  1016.5hPa Calm     89% 0.00in /  0mm
00:39 51.5 °F /  10.8 °C 48.4 °F /  9.1 °C 30.03in /  1016.8hPa Calm     89% 0.00in /  0mm
00:44 51.4 °F /  10.8 °C 48.3 °F /  9.1 °C 30.03in /  1016.8hPa Calm     89% 0.00in /  0mm
00:49 51.3 °F /  10.7 °C 48.2 °F /  9 °C 30.03in /  1016.8hPa Calm     89% 0.00in /  0mm
00:54 51.1 °F /  10.6 °C 48.0 °F /  8.9 °C 30.03in /  1016.8hPa Calm     89% 0.00in /  0mm
00:59 51.0 °F /  10.6 °C 48.2 °F /  9 °C 30.03in /  1016.8hPa Calm     90% 0.00in /  0mm
01:04 50.9 °F /  10.5 °C 48.1 °F /  8.9 °C 30.03in /  1016.8hPa Calm     90% 0.00in /  0mm
01:09 51.0 °F /  10.6 °C 48.2 °F /  9 °C 30.03in /  1016.8hPa Calm     90% 0.00in /  0mm
01:14 51.0 °F /  10.6 °C 48.2 °F /  9 °C 30.03in /  1016.8hPa Calm     90% 0.00in /  0mm
01:19 51.0 °F /  10.6 °C 48.5 °F /  9.2 °C 30.03in /  1016.8hPa Calm     91% 0.00in /  0mm
01:24 50.9 °F /  10.5 °C 48.4 °F /  9.1 °C 30.03in /  1016.8hPa Calm     91% 0.00in /  0mm
01:29 50.8 °F /  10.4 °C 48.3 °F /  9.1 °C 30.03in /  1016.8hPa Calm     91% 0.00in /  0mm
01:34 50.8 °F /  10.4 °C 48.3 °F /  9.1 °C 30.03in /  1016.8hPa Calm     91% 0.00in /  0mm
01:39 50.7 °F /  10.4 °C 48.2 °F /  9 °C 30.03in /  1016.8hPa Calm     91% 0.00in /  0mm
01:44 50.6 °F /  10.3 °C 48.1 °F /  8.9 °C 30.03in /  1016.8hPa Calm     91% 0.00in /  0mm
01:49 50.5 °F /  10.3 °C 48.0 °F /  8.9 °C 30.03in /  1016.8hPa Calm     91% 0.00in /  0mm
01:54 50.3 °F /  10.2 °C 48.1 °F /  8.9 °C 30.03in /  1016.8hPa Calm     92% 0.00in /  0mm
01:59 50.2 °F /  10.1 °C 48.0 °F /  8.9 °C 30.03in /  1016.8hPa Calm     92% 0.00in /  0mm
02:04 50.1 °F /  10.1 °C 47.9 °F /  8.8 °C 30.03in /  1016.8hPa Calm     92% 0.00in /  0mm
02:09 50.0 °F /  10 °C 47.8 °F /  8.8 °C 30.03in /  1016.8hPa Calm     92% 0.00in /  0mm
02:14 50.3 °F /  10.2 °C 48.1 °F /  8.9 °C 30.03in /  1016.8hPa Calm     92% 0.00in /  0mm
02:19 50.1 °F /  10.1 °C 47.9 °F /  8.8 °C 30.03in /  1016.8hPa Calm     92% 0.00in /  0mm
02:24 50.0 °F /  10 °C 47.8 °F /  8.8 °C 30.03in /  1016.8hPa Calm     92% 0.00in /  0mm
02:29 49.9 °F /  9.9 °C 47.7 °F /  8.7 °C 30.03in /  1016.8hPa Calm     92% 0.00in /  0mm
02:34 49.7 °F /  9.8 °C 47.5 °F /  8.6 °C 30.03in /  1016.8hPa Calm     92% 0.00in /  0mm
02:39 49.8 °F /  9.9 °C 47.9 °F /  8.8 °C 30.03in /  1016.8hPa Calm     93% 0.00in /  0mm
02:44 49.9 °F /  9.9 °C 48.0 °F /  8.9 °C 30.03in /  1016.8hPa Calm     93% 0.00in /  0mm
02:49 50.0 °F /  10 °C 48.1 °F /  8.9 °C 30.03in /  1016.8hPa Calm     93% 0.00in /  0mm
02:54 50.1 °F /  10.1 °C 48.2 °F /  9 °C 30.04in /  1017.2hPa Calm     93% 0.00in /  0mm
02:59 50.0 °F /  10 °C 48.1 °F /  8.9 °C 30.03in /  1016.8hPa Calm     93% 0.00in /  0mm
03:04 49.8 °F /  9.9 °C 47.9 °F /  8.8 °C 30.03in /  1016.8hPa Calm     93% 0.00in /  0mm
03:09 49.8 °F /  9.9 °C 47.9 °F /  8.8 °C 30.03in /  1016.8hPa Calm     93% 0.00in /  0mm
03:19 49.8 °F /  9.9 °C 48.1 °F /  8.9 °C 30.03in /  1016.8hPa Calm     94% 0.00in /  0mm
03:24 49.7 °F /  9.8 °C 48.0 °F /  8.9 °C 30.03in /  1016.8hPa Calm     94% 0.00in /  0mm
03:29 49.7 °F /  9.8 °C 48.0 °F /  8.9 °C 30.03in /  1016.8hPa Calm     94% 0.00in /  0mm
03:34 49.6 °F /  9.8 °C 47.9 °F /  8.8 °C 30.03in /  1016.8hPa Calm     94% 0.00in /  0mm
03:39 49.7 °F /  9.8 °C 48.0 °F /  8.9 °C 30.03in /  1016.8hPa Calm     94% 0.00in /  0mm
03:45 49.8 °F /  9.9 °C 48.1 °F /  8.9 °C 30.04in /  1017.2hPa Calm     94% 0.00in /  0mm
03:54 49.9 °F /  9.9 °C 48.2 °F /  9 °C 30.03in /  1016.8hPa Calm     94% 0.00in /  0mm
03:59 49.9 °F /  9.9 °C 48.5 °F /  9.2 °C 30.03in /  1016.8hPa Calm     95% 0.00in /  0mm
04:04 49.9 °F /  9.9 °C 48.5 °F /  9.2 °C 30.03in /  1016.8hPa Calm     95% 0.00in /  0mm
04:09 49.9 °F /  9.9 °C 48.5 °F /  9.2 °C 30.03in /  1016.8hPa Calm     95% 0.00in /  0mm
04:14 49.9 °F /  9.9 °C 48.2 °F /  9 °C 30.03in /  1016.8hPa Calm     94% 0.00in /  0mm
04:19 49.9 °F /  9.9 °C 48.2 °F /  9 °C 30.03in /  1016.8hPa Calm     94% 0.00in /  0mm
04:24 49.7 °F /  9.8 °C 48.0 °F /  8.9 °C 30.03in /  1016.8hPa Calm     94% 0.00in /  0mm
04:29 49.5 °F /  9.7 °C 48.1 °F /  8.9 °C 30.04in /  1017.2hPa Calm     95% 0.00in /  0mm
04:34 49.4 °F /  9.7 °C 48.0 °F /  8.9 °C 30.03in /  1016.8hPa Calm     95% 0.00in /  0mm
04:39 49.3 °F /  9.6 °C 47.9 °F /  8.8 °C 30.03in /  1016.8hPa Calm     95% 0.00in /  0mm
04:49 49.2 °F /  9.6 °C 47.8 °F /  8.8 °C 30.03in /  1016.8hPa Calm     95% 0.00in /  0mm
04:54 49.1 °F /  9.5 °C 47.4 °F /  8.6 °C 30.03in /  1016.8hPa Calm     94% 0.00in /  0mm
04:59 48.8 °F /  9.3 °C 47.4 °F /  8.6 °C 30.03in /  1016.8hPa Calm     95% 0.00in /  0mm
05:04 48.8 °F /  9.3 °C 47.4 °F /  8.6 °C 30.03in /  1016.8hPa Calm     95% 0.00in /  0mm
05:09 48.7 °F /  9.3 °C 47.3 °F /  8.5 °C 30.03in /  1016.8hPa Calm     95% 0.00in /  0mm
05:14 48.6 °F /  9.2 °C 47.0 °F /  8.3 °C 30.03in /  1016.8hPa Calm     94% 0.00in /  0mm
05:19 48.4 °F /  9.1 °C 47.0 °F /  8.3 °C 30.04in /  1017.2hPa Calm     95% 0.00in /  0mm
05:24 48.6 °F /  9.2 °C 47.2 °F /  8.4 °C 30.04in /  1017.2hPa Calm     95% 0.00in /  0mm
05:29 48.7 °F /  9.3 °C 47.3 °F /  8.5 °C 30.04in /  1017.2hPa Calm     95% 0.00in /  0mm
05:34 48.8 °F /  9.3 °C 47.4 °F /  8.6 °C 30.04in /  1017.2hPa Calm     95% 0.00in /  0mm
05:39 48.8 °F /  9.3 °C 47.4 °F /  8.6 °C 30.04in /  1017.2hPa Calm     95% 0.00in /  0mm
05:44 49.0 °F /  9.4 °C 47.6 °F /  8.7 °C 30.04in /  1017.2hPa Calm     95% 0.00in /  0mm
05:49 49.3 °F /  9.6 °C 47.9 °F /  8.8 °C 30.04in /  1017.2hPa Calm     95% 0.00in /  0mm
05:54 49.8 °F /  9.9 °C 48.4 °F /  9.1 °C 30.04in /  1017.2hPa Calm     95% 0.00in /  0mm
05:59 50.2 °F /  10.1 °C 48.8 °F /  9.3 °C 30.04in /  1017.2hPa Calm     95% 0.00in /  0mm
06:04 50.4 °F /  10.2 °C 49.0 °F /  9.4 °C 30.04in /  1017.2hPa Calm     95% 0.00in /  0mm
06:09 50.5 °F /  10.3 °C 49.1 °F /  9.5 °C 30.05in /  1017.5hPa Calm     95% 0.00in /  0mm
06:14 50.6 °F /  10.3 °C 49.2 °F /  9.6 °C 30.04in /  1017.2hPa Calm     95% 0.00in /  0mm
06:19 50.8 °F /  10.4 °C 49.4 °F /  9.7 °C 30.04in /  1017.2hPa Calm     95% 0.00in /  0mm
06:24 51.1 °F /  10.6 °C 49.7 °F /  9.8 °C 30.05in /  1017.5hPa Calm   1.0mph /  1.6km/h 95% 0.00in /  0mm
06:29 51.4 °F /  10.8 °C 50.0 °F /  10 °C 30.04in /  1017.2hPa Calm   1.0mph /  1.6km/h 95% 0.00in /  0mm
06:34 51.4 °F /  10.8 °C 50.0 °F /  10 °C 30.04in /  1017.2hPa Calm     95% 0.00in /  0mm
06:39 51.5 °F /  10.8 °C 50.1 °F /  10.1 °C 30.04in /  1017.2hPa Calm     95% 0.00in /  0mm
06:44 51.7 °F /  10.9 °C 50.3 °F /  10.2 °C 30.04in /  1017.2hPa Calm     95% 0.00in /  0mm
06:49 52.0 °F /  11.1 °C 50.6 °F /  10.3 °C 30.05in /  1017.5hPa Calm     95% 0.00in /  0mm
06:54 52.2 °F /  11.2 °C 51.1 °F /  10.6 °C 30.05in /  1017.5hPa Calm     96% 0.00in /  0mm
06:59 52.4 °F /  11.3 °C 51.3 °F /  10.7 °C 30.05in /  1017.5hPa Calm     96% 0.00in /  0mm
07:04 52.7 °F /  11.5 °C 51.6 °F /  10.9 °C 30.05in /  1017.5hPa Calm     96% 0.00in /  0mm
07:09 53.5 °F /  11.9 °C 52.4 °F /  11.3 °C 30.06in /  1017.8hPa SSW 1.0mph /  1.6km/h 4.0mph /  6.4km/h 96% 0.00in /  0mm
07:14 54.1 °F /  12.3 °C 53.0 °F /  11.7 °C 30.05in /  1017.5hPa Calm   4.0mph /  6.4km/h 96% 0.00in /  0mm
07:19 54.6 °F /  12.6 °C 53.5 °F /  11.9 °C 30.05in /  1017.5hPa Calm   3.0mph /  4.8km/h 96% 0.00in /  0mm
07:24 55.3 °F /  12.9 °C 54.2 °F /  12.3 °C 30.05in /  1017.5hPa Calm     96% 0.00in /  0mm
07:29 55.9 °F /  13.3 °C 54.8 °F /  12.7 °C 30.05in /  1017.5hPa Calm     96% 0.00in /  0mm
07:34 56.1 °F /  13.4 °C 55.0 °F /  12.8 °C 30.05in /  1017.5hPa Calm   1.0mph /  1.6km/h 96% 0.00in /  0mm
07:39 56.4 °F /  13.6 °C 55.3 °F /  12.9 °C 30.05in /  1017.5hPa Calm   1.0mph /  1.6km/h 96% 0.00in /  0mm
07:44 56.8 °F /  13.8 °C 55.7 °F /  13.2 °C 30.05in /  1017.5hPa Calm   2.0mph /  3.2km/h 96% 0.00in /  0mm
07:49 57.2 °F /  14 °C 56.1 °F /  13.4 °C 30.05in /  1017.5hPa Calm   2.0mph /  3.2km/h 96% 0.00in /  0mm
07:54 57.7 °F /  14.3 °C 56.6 °F /  13.7 °C 30.06in /  1017.8hPa Calm   3.0mph /  4.8km/h 96% 0.00in /  0mm
07:59 58.2 °F /  14.6 °C 57.1 °F /  13.9 °C 30.06in /  1017.8hPa Calm   3.0mph /  4.8km/h 96% 0.00in /  0mm
08:09 59.4 °F /  15.2 °C 58.0 °F /  14.4 °C 30.05in /  1017.5hPa SSW 1.0mph /  1.6km/h 6.0mph /  9.7km/h 95% 0.00in /  0mm
08:14 60.2 °F /  15.7 °C 58.2 °F /  14.6 °C 30.05in /  1017.5hPa SSW 1.0mph /  1.6km/h 6.0mph /  9.7km/h 93% 0.00in /  0mm
08:19 61.2 °F /  16.2 °C 57.9 °F /  14.4 °C 30.06in /  1017.8hPa SSW 1.0mph /  1.6km/h 8.0mph /  12.9km/h 89% 0.00in /  0mm
08:24 62.2 °F /  16.8 °C 57.6 °F /  14.2 °C 30.06in /  1017.8hPa SW 2.0mph /  3.2km/h 9.0mph /  14.5km/h 85% 0.00in /  0mm
08:29 63.1 °F /  17.3 °C 57.9 °F /  14.4 °C 30.05in /  1017.5hPa SW 1.0mph /  1.6km/h 9.0mph /  14.5km/h 83% 0.00in /  0mm
08:39 64.6 °F /  18.1 °C 57.9 °F /  14.4 °C 30.06in /  1017.8hPa SW 1.0mph /  1.6km/h 11.0mph /  17.7km/h 79% 0.00in /  0mm
08:49 65.4 °F /  18.6 °C 57.6 °F /  14.2 °C 30.06in /  1017.8hPa SW 1.0mph /  1.6km/h 12.0mph /  19.3km/h 76% 0.00in /  0mm
08:54 66.1 °F /  18.9 °C 57.6 °F /  14.2 °C 30.06in /  1017.8hPa Calm   8.0mph /  12.9km/h 74% 0.00in /  0mm
08:59 66.7 °F /  19.3 °C 57.8 °F /  14.3 °C 30.07in /  1018.2hPa SW 1.0mph /  1.6km/h 5.0mph /  8km/h 73% 0.00in /  0mm
09:04 67.1 °F /  19.5 °C 57.8 °F /  14.3 °C 30.07in /  1018.2hPa Calm   5.0mph /  8km/h 72% 0.00in /  0mm
09:09 68.0 °F /  20 °C 59.0 °F /  15 °C 30.06in /  1017.8hPa Calm   5.0mph /  8km/h 73% 0.00in /  0mm
09:14 68.3 °F /  20.2 °C 58.1 °F /  14.5 °C 30.06in /  1017.8hPa Calm   7.0mph /  11.3km/h 70% 0.00in /  0mm
09:19 68.6 °F /  20.3 °C 58.8 °F /  14.9 °C 30.06in /  1017.8hPa Calm   7.0mph /  11.3km/h 71% 0.00in /  0mm
09:24 69.2 °F /  20.7 °C 58.6 °F /  14.8 °C 30.06in /  1017.8hPa Calm   5.0mph /  8km/h 69% 0.00in /  0mm
09:29 69.8 °F /  21 °C 59.2 °F /  15.1 °C 30.06in /  1017.8hPa Calm   5.0mph /  8km/h 69% 0.00in /  0mm
09:34 70.4 °F /  21.3 °C 60.6 °F /  15.9 °C 30.06in /  1017.8hPa Calm   1.0mph /  1.6km/h 71% 0.00in /  0mm
09:39 70.3 °F /  21.3 °C 58.4 °F /  14.7 °C 30.06in /  1017.8hPa SSW 1.0mph /  1.6km/h 5.0mph /  8km/h 66% 0.00in /  0mm
09:44 70.4 °F /  21.3 °C 59.3 °F /  15.2 °C 30.06in /  1017.8hPa Calm   5.0mph /  8km/h 68% 0.00in /  0mm
09:49 70.7 °F /  21.5 °C 58.8 °F /  14.9 °C 30.06in /  1017.8hPa Calm   3.0mph /  4.8km/h 66% 0.00in /  0mm
09:54 71.0 °F /  21.7 °C 59.5 °F /  15.3 °C 30.06in /  1017.8hPa Calm   3.0mph /  4.8km/h 67% 0.00in /  0mm
09:59 71.9 °F /  22.2 °C 58.6 °F /  14.8 °C 30.06in /  1017.8hPa Calm   4.0mph /  6.4km/h 63% 0.00in /  0mm
10:04 72.0 °F /  22.2 °C 58.3 °F /  14.6 °C 30.06in /  1017.8hPa Calm   4.0mph /  6.4km/h 62% 0.00in /  0mm
10:09 71.9 °F /  22.2 °C 58.6 °F /  14.8 °C 30.06in /  1017.8hPa Calm   1.0mph /  1.6km/h 63% 0.00in /  0mm
10:14 71.7 °F /  22.1 °C 58.0 °F /  14.4 °C 30.05in /  1017.5hPa Calm   4.0mph /  6.4km/h 62% 0.00in /  0mm
10:19 72.3 °F /  22.4 °C 59.5 °F /  15.3 °C 30.05in /  1017.5hPa SW 1.0mph /  1.6km/h 5.0mph /  8km/h 64% 0.00in /  0mm
10:24 73.2 °F /  22.9 °C 59.9 °F /  15.5 °C 30.05in /  1017.5hPa Calm   5.0mph /  8km/h 63% 0.00in /  0mm
10:29 73.7 °F /  23.2 °C 59.4 °F /  15.2 °C 30.05in /  1017.5hPa SW 1.0mph /  1.6km/h 5.0mph /  8km/h 61% 0.00in /  0mm
10:34 73.4 °F /  23 °C 58.7 °F /  14.8 °C 30.05in /  1017.5hPa Calm   5.0mph /  8km/h 60% 0.00in /  0mm
10:39 73.5 °F /  23.1 °C 58.8 °F /  14.9 °C 30.05in /  1017.5hPa Calm     60% 0.00in /  0mm
10:44 74.2 °F /  23.4 °C 60.4 °F /  15.8 °C 30.05in /  1017.5hPa Calm     62% 0.00in /  0mm
10:49 74.9 °F /  23.8 °C 60.1 °F /  15.6 °C 30.05in /  1017.5hPa Calm   3.0mph /  4.8km/h 60% 0.00in /  0mm
10:54 75.3 °F /  24.1 °C 60.5 °F /  15.8 °C 30.05in /  1017.5hPa West 1.0mph /  1.6km/h 4.0mph /  6.4km/h 60% 0.00in /  0mm
10:59 75.1 °F /  23.9 °C 58.8 °F /  14.9 °C 30.04in /  1017.2hPa Calm   4.0mph /  6.4km/h 57% 0.00in /  0mm
11:04 75.2 °F /  24 °C 59.9 °F /  15.5 °C 30.04in /  1017.2hPa Calm   1.0mph /  1.6km/h 59% 0.00in /  0mm
11:09 75.6 °F /  24.2 °C 58.8 °F /  14.9 °C 30.04in /  1017.2hPa Calm   4.0mph /  6.4km/h 56% 0.00in /  0mm
11:14 76.1 °F /  24.5 °C 60.8 °F /  16 °C 30.05in /  1017.5hPa Calm   4.0mph /  6.4km/h 59% 0.00in /  0mm
11:19 76.2 °F /  24.6 °C 58.4 °F /  14.7 °C 30.04in /  1017.2hPa Calm   5.0mph /  8km/h 54% 0.00in /  0mm
11:24 76.7 °F /  24.8 °C 57.8 °F /  14.3 °C 30.04in /  1017.2hPa Calm   7.0mph /  11.3km/h 52% 0.00in /  0mm
11:29 77.0 °F /  25 °C 57.0 °F /  13.9 °C 30.04in /  1017.2hPa Calm   7.0mph /  11.3km/h 50% 0.00in /  0mm
11:34 76.9 °F /  24.9 °C 55.7 °F /  13.2 °C 30.04in /  1017.2hPa Calm   5.0mph /  8km/h 48% 0.00in /  0mm
11:39 77.0 °F /  25 °C 56.4 °F /  13.6 °C 30.04in /  1017.2hPa Calm   1.0mph /  1.6km/h 49% 0.00in /  0mm
11:44 77.3 °F /  25.2 °C 57.2 °F /  14 °C 30.03in /  1016.8hPa Calm   1.0mph /  1.6km/h 50% 0.00in /  0mm
11:49 77.7 °F /  25.4 °C 58.7 °F /  14.8 °C 30.04in /  1017.2hPa Calm   4.0mph /  6.4km/h 52% 0.00in /  0mm
11:54 77.4 °F /  25.2 °C 56.8 °F /  13.8 °C 30.03in /  1016.8hPa Calm   6.0mph /  9.7km/h 49% 0.00in /  0mm
11:59 77.5 °F /  25.3 °C 59.0 °F /  15 °C 30.04in /  1017.2hPa SW 1.0mph /  1.6km/h 6.0mph /  9.7km/h 53% 0.00in /  0mm
12:04 77.8 °F /  25.4 °C 59.3 °F /  15.2 °C 30.03in /  1016.8hPa Calm   6.0mph /  9.7km/h 53% 0.00in /  0mm
12:09 77.5 °F /  25.3 °C 58.0 °F /  14.4 °C 30.03in /  1016.8hPa SSW 1.0mph /  1.6km/h 5.0mph /  8km/h 51% 0.00in /  0mm
12:14 76.1 °F /  24.5 °C 57.7 °F /  14.3 °C 30.03in /  1016.8hPa Calm   5.0mph /  8km/h 53% 0.00in /  0mm
12:24 75.4 °F /  24.1 °C 57.1 °F /  13.9 °C 30.03in /  1016.8hPa SSW 2.0mph /  3.2km/h 8.0mph /  12.9km/h 53% 0.00in /  0mm
12:29 76.7 °F /  24.8 °C 58.3 °F /  14.6 °C 30.03in /  1016.8hPa Calm   10.0mph /  16.1km/h 53% 0.00in /  0mm
12:34 77.7 °F /  25.4 °C 56.5 °F /  13.6 °C 30.03in /  1016.8hPa Calm   10.0mph /  16.1km/h 48% 0.00in /  0mm
12:39 77.9 °F /  25.5 °C 57.2 °F /  14 °C 30.03in /  1016.8hPa Calm   7.0mph /  11.3km/h 49% 0.00in /  0mm
12:44 78.2 °F /  25.7 °C 56.9 °F /  13.8 °C 30.03in /  1016.8hPa SSW 3.0mph /  4.8km/h 9.0mph /  14.5km/h 48% 0.00in /  0mm
12:49 78.5 °F /  25.8 °C 58.9 °F /  14.9 °C 30.03in /  1016.8hPa Calm   10.0mph /  16.1km/h 51% 0.00in /  0mm
12:54 78.8 °F /  26 °C 57.5 °F /  14.2 °C 30.03in /  1016.8hPa WSW 1.0mph /  1.6km/h 10.0mph /  16.1km/h 48% 0.00in /  0mm
12:59 78.7 °F /  25.9 °C 56.8 °F /  13.8 °C 30.02in /  1016.5hPa SSW 1.0mph /  1.6km/h 8.0mph /  12.9km/h 47% 0.00in /  0mm
13:04 78.6 °F /  25.9 °C 57.3 °F /  14.1 °C 30.03in /  1016.8hPa South 1.0mph /  1.6km/h 6.0mph /  9.7km/h 48% 0.00in /  0mm
13:09 78.4 °F /  25.8 °C 56.5 °F /  13.6 °C 30.03in /  1016.8hPa SSW 1.0mph /  1.6km/h 9.0mph /  14.5km/h 47% 0.00in /  0mm
13:14 77.9 °F /  25.5 °C 56.1 °F /  13.4 °C 30.02in /  1016.5hPa Calm   9.0mph /  14.5km/h 47% 0.00in /  0mm
13:19 77.1 °F /  25.1 °C 55.9 °F /  13.3 °C 30.02in /  1016.5hPa Calm   6.0mph /  9.7km/h 48% 0.00in /  0mm
13:24 77.3 °F /  25.2 °C 54.9 °F /  12.7 °C 30.02in /  1016.5hPa West 2.0mph /  3.2km/h 9.0mph /  14.5km/h 46% 0.00in /  0mm
13:29 78.3 °F /  25.7 °C 58.2 °F /  14.6 °C 30.02in /  1016.5hPa SSW 1.0mph /  1.6km/h 9.0mph /  14.5km/h 50% 0.00in /  0mm
13:34 78.7 °F /  25.9 °C 56.2 °F /  13.4 °C 30.01in /  1016.1hPa WSW 1.0mph /  1.6km/h 9.0mph /  14.5km/h 46% 0.00in /  0mm
13:39 79.2 °F /  26.2 °C 56.1 °F /  13.4 °C 30.01in /  1016.1hPa WSW 2.0mph /  3.2km/h 9.0mph /  14.5km/h 45% 0.00in /  0mm
13:44 79.4 °F /  26.3 °C 57.4 °F /  14.1 °C 30.01in /  1016.1hPa SSE 1.0mph /  1.6km/h 7.0mph /  11.3km/h 47% 0.00in /  0mm
13:49 79.1 °F /  26.2 °C 55.3 °F /  12.9 °C 30.01in /  1016.1hPa Calm   6.0mph /  9.7km/h 44% 0.00in /  0mm
13:54 79.1 °F /  26.2 °C 56.6 °F /  13.7 °C 30.01in /  1016.1hPa Calm   6.0mph /  9.7km/h 46% 0.00in /  0mm
13:59 79.2 °F /  26.2 °C 54.2 °F /  12.3 °C 30.01in /  1016.1hPa Calm   11.0mph /  17.7km/h 42% 0.00in /  0mm
14:04 79.9 °F /  26.6 °C 57.9 °F /  14.4 °C 30.01in /  1016.1hPa SSW 1.0mph /  1.6km/h 11.0mph /  17.7km/h 47% 0.00in /  0mm
14:09 80.1 °F /  26.7 °C 55.6 °F /  13.1 °C 30.01in /  1016.1hPa SSW 2.0mph /  3.2km/h 8.0mph /  12.9km/h 43% 0.00in /  0mm
14:14 80.2 °F /  26.8 °C 57.0 °F /  13.9 °C 30.00in /  1015.8hPa Calm   8.0mph /  12.9km/h 45% 0.00in /  0mm
14:19 79.9 °F /  26.6 °C 58.5 °F /  14.7 °C 30.01in /  1016.1hPa Calm   5.0mph /  8km/h 48% 0.00in /  0mm
14:24 80.0 °F /  26.7 °C 59.7 °F /  15.4 °C 30.00in /  1015.8hPa SSW 1.0mph /  1.6km/h 9.0mph /  14.5km/h 50% 0.00in /  0mm
14:29 80.0 °F /  26.7 °C 56.2 °F /  13.4 °C 30.00in /  1015.8hPa Calm   9.0mph /  14.5km/h 44% 0.00in /  0mm
14:34 80.4 °F /  26.9 °C 57.8 °F /  14.3 °C 30.00in /  1015.8hPa SSW 1.0mph /  1.6km/h 6.0mph /  9.7km/h 46% 0.00in /  0mm
14:39 81.0 °F /  27.2 °C 59.5 °F /  15.3 °C 30.00in /  1015.8hPa West 1.0mph /  1.6km/h 5.0mph /  8km/h 48% 0.00in /  0mm
14:44 81.4 °F /  27.4 °C 57.4 °F /  14.1 °C 30.00in /  1015.8hPa SW 1.0mph /  1.6km/h 7.0mph /  11.3km/h 44% 0.00in /  0mm
14:49 81.6 °F /  27.6 °C 58.2 °F /  14.6 °C 30.00in /  1015.8hPa WSW 1.0mph /  1.6km/h 7.0mph /  11.3km/h 45% 0.00in /  0mm
14:54 81.9 °F /  27.7 °C 58.5 °F /  14.7 °C 30.00in /  1015.8hPa Calm   4.0mph /  6.4km/h 45% 0.00in /  0mm
14:59 81.2 °F /  27.3 °C 57.9 °F /  14.4 °C 30.00in /  1015.8hPa Calm   8.0mph /  12.9km/h 45% 0.00in /  0mm
15:04 80.3 °F /  26.8 °C 58.8 °F /  14.9 °C 30.00in /  1015.8hPa SSW 1.0mph /  1.6km/h 8.0mph /  12.9km/h 48% 0.00in /  0mm
15:09 79.8 °F /  26.6 °C 56.6 °F /  13.7 °C 29.99in /  1015.5hPa Calm   8.0mph /  12.9km/h 45% 0.00in /  0mm
15:14 80.1 °F /  26.7 °C 58.1 °F /  14.5 °C 29.99in /  1015.5hPa SSW 1.0mph /  1.6km/h 11.0mph /  17.7km/h 47% 0.00in /  0mm
15:19 79.7 °F /  26.5 °C 55.9 °F /  13.3 °C 29.99in /  1015.5hPa SSW 4.0mph /  6.4km/h 12.0mph /  19.3km/h 44% 0.00in /  0mm
15:24 79.3 °F /  26.3 °C 56.8 °F /  13.8 °C 29.99in /  1015.5hPa SW 1.0mph /  1.6km/h 12.0mph /  19.3km/h 46% 0.00in /  0mm
15:29 79.8 °F /  26.6 °C 57.2 °F /  14 °C 29.99in /  1015.5hPa Calm   7.0mph /  11.3km/h 46% 0.00in /  0mm
15:34 80.5 °F /  26.9 °C 59.0 °F /  15 °C 29.99in /  1015.5hPa Calm   7.0mph /  11.3km/h 48% 0.00in /  0mm
15:39 81.2 °F /  27.3 °C 57.2 °F /  14 °C 29.99in /  1015.5hPa Calm   8.0mph /  12.9km/h 44% 0.00in /  0mm
15:44 81.4 °F /  27.4 °C 58.7 °F /  14.8 °C 29.99in /  1015.5hPa SSW 2.0mph /  3.2km/h 9.0mph /  14.5km/h 46% 0.00in /  0mm
15:49 81.5 °F /  27.5 °C 56.2 °F /  13.4 °C 29.99in /  1015.5hPa Calm   9.0mph /  14.5km/h 42% 0.00in /  0mm
15:54 82.0 °F /  27.8 °C 58.0 °F /  14.4 °C 29.99in /  1015.5hPa Calm   6.0mph /  9.7km/h 44% 0.00in /  0mm
15:59 82.5 °F /  28.1 °C 57.8 °F /  14.3 °C 29.99in /  1015.5hPa Calm   4.0mph /  6.4km/h 43% 0.00in /  0mm
16:04 82.0 °F /  27.8 °C 58.0 °F /  14.4 °C 29.99in /  1015.5hPa Calm   3.0mph /  4.8km/h 44% 0.00in /  0mm
16:09 81.8 °F /  27.7 °C 57.8 °F /  14.3 °C 29.99in /  1015.5hPa Calm   3.0mph /  4.8km/h 44% 0.00in /  0mm
16:14 82.3 °F /  27.9 °C 58.2 °F /  14.6 °C 29.99in /  1015.5hPa SW 1.0mph /  1.6km/h 7.0mph /  11.3km/h 44% 0.00in /  0mm
16:19 82.3 °F /  27.9 °C 57.6 °F /  14.2 °C 29.98in /  1015.1hPa SW 5.0mph /  8km/h 8.0mph /  12.9km/h 43% 0.00in /  0mm
16:24 82.4 °F /  28 °C 59.6 °F /  15.3 °C 29.98in /  1015.1hPa Calm   8.0mph /  12.9km/h 46% 0.00in /  0mm
16:29 82.5 °F /  28.1 °C 58.4 °F /  14.7 °C 29.98in /  1015.1hPa Calm   7.0mph /  11.3km/h 44% 0.00in /  0mm
16:34 82.4 °F /  28 °C 56.4 °F /  13.6 °C 29.98in /  1015.1hPa SSW 3.0mph /  4.8km/h 10.0mph /  16.1km/h 41% 0.00in /  0mm
16:39 81.6 °F /  27.6 °C 55.7 °F /  13.2 °C 29.98in /  1015.1hPa SW 2.0mph /  3.2km/h 10.0mph /  16.1km/h 41% 0.00in /  0mm
16:44 80.5 °F /  26.9 °C 56.0 °F /  13.3 °C 29.98in /  1015.1hPa Calm   7.0mph /  11.3km/h 43% 0.00in /  0mm
16:49 79.6 °F /  26.4 °C 56.4 °F /  13.6 °C 29.97in /  1014.8hPa Calm   4.0mph /  6.4km/h 45% 0.00in /  0mm
16:54 79.2 °F /  26.2 °C 56.7 °F /  13.7 °C 29.97in /  1014.8hPa Calm   2.0mph /  3.2km/h 46% 0.00in /  0mm
16:59 80.1 °F /  26.7 °C 58.1 °F /  14.5 °C 29.97in /  1014.8hPa Calm   2.0mph /  3.2km/h 47% 0.00in /  0mm
17:04 81.3 °F /  27.4 °C 58.0 °F /  14.4 °C 29.97in /  1014.8hPa SW 1.0mph /  1.6km/h 6.0mph /  9.7km/h 45% 0.00in /  0mm
17:09 81.8 °F /  27.7 °C 57.1 °F /  13.9 °C 29.97in /  1014.8hPa SSW 1.0mph /  1.6km/h 6.0mph /  9.7km/h 43% 0.00in /  0mm
17:14 81.9 °F /  27.7 °C 59.1 °F /  15.1 °C 29.97in /  1014.8hPa Calm   8.0mph /  12.9km/h 46% 0.00in /  0mm
17:19 81.8 °F /  27.7 °C 56.5 °F /  13.6 °C 29.97in /  1014.8hPa SW 2.0mph /  3.2km/h 9.0mph /  14.5km/h 42% 0.00in /  0mm
17:24 81.1 °F /  27.3 °C 56.5 °F /  13.6 °C 29.97in /  1014.8hPa SW 2.0mph /  3.2km/h 9.0mph /  14.5km/h 43% 0.00in /  0mm
17:29 80.9 °F /  27.2 °C 55.0 °F /  12.8 °C 29.97in /  1014.8hPa SSW 4.0mph /  6.4km/h 9.0mph /  14.5km/h 41% 0.00in /  0mm
17:34 80.2 °F /  26.8 °C 55.7 °F /  13.2 °C 29.97in /  1014.8hPa SW 1.0mph /  1.6km/h 9.0mph /  14.5km/h 43% 0.00in /  0mm
17:39 80.0 °F /  26.7 °C 58.0 °F /  14.4 °C 29.97in /  1014.8hPa Calm   9.0mph /  14.5km/h 47% 0.00in /  0mm
17:44 80.2 °F /  26.8 °C 55.7 °F /  13.2 °C 29.96in /  1014.4hPa WSW 1.0mph /  1.6km/h 6.0mph /  9.7km/h 43% 0.00in /  0mm
17:49 80.2 °F /  26.8 °C 57.0 °F /  13.9 °C 29.96in /  1014.4hPa Calm   6.0mph /  9.7km/h 45% 0.00in /  0mm
17:54 80.2 °F /  26.8 °C 57.6 °F /  14.2 °C 29.96in /  1014.4hPa Calm   1.0mph /  1.6km/h 46% 0.00in /  0mm
17:59 80.0 °F /  26.7 °C 58.0 °F /  14.4 °C 29.96in /  1014.4hPa Calm   1.0mph /  1.6km/h 47% 0.00in /  0mm
18:04 79.6 °F /  26.4 °C 57.0 °F /  13.9 °C 29.96in /  1014.4hPa SSW 1.0mph /  1.6km/h 4.0mph /  6.4km/h 46% 0.00in /  0mm
18:09 79.5 °F /  26.4 °C 56.3 °F /  13.5 °C 29.96in /  1014.4hPa SSW 1.0mph /  1.6km/h 4.0mph /  6.4km/h 45% 0.00in /  0mm
18:14 79.7 °F /  26.5 °C 57.7 °F /  14.3 °C 29.96in /  1014.4hPa Calm   6.0mph /  9.7km/h 47% 0.00in /  0mm
18:19 80.3 °F /  26.8 °C 57.1 °F /  13.9 °C 29.96in /  1014.4hPa Calm   6.0mph /  9.7km/h 45% 0.00in /  0mm
18:24 80.8 °F /  27.1 °C 57.5 °F /  14.2 °C 29.96in /  1014.4hPa Calm   8.0mph /  12.9km/h 45% 0.00in /  0mm
18:29 80.8 °F /  27.1 °C 56.9 °F /  13.8 °C 29.95in /  1014.1hPa SW 1.0mph /  1.6km/h 8.0mph /  12.9km/h 44% 0.00in /  0mm
18:34 80.5 °F /  26.9 °C 56.6 °F /  13.7 °C 29.95in /  1014.1hPa Calm   6.0mph /  9.7km/h 44% 0.00in /  0mm
18:39 79.7 °F /  26.5 °C 57.1 °F /  13.9 °C 29.95in /  1014.1hPa Calm   4.0mph /  6.4km/h 46% 0.00in /  0mm
18:44 79.3 °F /  26.3 °C 56.8 °F /  13.8 °C 29.95in /  1014.1hPa SSW 2.0mph /  3.2km/h 6.0mph /  9.7km/h 46% 0.00in /  0mm
18:49 79.0 °F /  26.1 °C 55.9 °F /  13.3 °C 29.95in /  1014.1hPa SW 2.0mph /  3.2km/h 7.0mph /  11.3km/h 45% 0.00in /  0mm
18:54 79.1 °F /  26.2 °C 56.6 °F /  13.7 °C 29.95in /  1014.1hPa Calm   7.0mph /  11.3km/h 46% 0.00in /  0mm
18:59 79.1 °F /  26.2 °C 57.2 °F /  14 °C 29.96in /  1014.4hPa Calm   5.0mph /  8km/h 47% 0.00in /  0mm
19:04 79.2 °F /  26.2 °C 57.3 °F /  14.1 °C 29.96in /  1014.4hPa Calm   1.0mph /  1.6km/h 47% 0.00in /  0mm
19:09 79.2 °F /  26.2 °C 57.3 °F /  14.1 °C 29.96in /  1014.4hPa Calm   1.0mph /  1.6km/h 47% 0.00in /  0mm
19:14 79.0 °F /  26.1 °C 56.5 °F /  13.6 °C 29.96in /  1014.4hPa Calm   1.0mph /  1.6km/h 46% 0.00in /  0mm
19:19 78.6 °F /  25.9 °C 56.7 °F /  13.7 °C 29.96in /  1014.4hPa Calm   6.0mph /  9.7km/h 47% 0.00in /  0mm
19:24 78.1 °F /  25.6 °C 56.3 °F /  13.5 °C 29.96in /  1014.4hPa Calm   6.0mph /  9.7km/h 47% 0.00in /  0mm
19:29 77.4 °F /  25.2 °C 56.8 °F /  13.8 °C 29.96in /  1014.4hPa Calm   1.0mph /  1.6km/h 49% 0.00in /  0mm
19:34 76.4 °F /  24.7 °C 57.5 °F /  14.2 °C 29.96in /  1014.4hPa Calm     52% 0.00in /  0mm
19:39 75.1 °F /  23.9 °C 57.3 °F /  14.1 °C 29.96in /  1014.4hPa Calm     54% 0.00in /  0mm
19:44 74.2 °F /  23.4 °C 58.5 °F /  14.7 °C 29.96in /  1014.4hPa Calm     58% 0.00in /  0mm
19:49 73.2 °F /  22.9 °C 58.0 °F /  14.4 °C 29.96in /  1014.4hPa Calm     59% 0.00in /  0mm
19:54 72.3 °F /  22.4 °C 58.1 °F /  14.5 °C 29.96in /  1014.4hPa Calm     61% 0.00in /  0mm
19:59 71.3 °F /  21.8 °C 57.2 °F /  14 °C 29.96in /  1014.4hPa Calm     61% 0.00in /  0mm
20:04 70.4 °F /  21.3 °C 58.1 °F /  14.5 °C 29.96in /  1014.4hPa Calm     65% 0.00in /  0mm
20:09 69.8 °F /  21 °C 58.4 °F /  14.7 °C 29.96in /  1014.4hPa Calm     67% 0.00in /  0mm
20:14 69.0 °F /  20.6 °C 58.0 °F /  14.4 °C 29.96in /  1014.4hPa Calm     68% 0.00in /  0mm
20:19 68.2 °F /  20.1 °C 57.2 °F /  14 °C 29.96in /  1014.4hPa Calm     68% 0.00in /  0mm
20:24 67.5 °F /  19.7 °C 57.4 °F /  14.1 °C 29.96in /  1014.4hPa Calm     70% 0.00in /  0mm
20:29 66.8 °F /  19.3 °C 56.7 °F /  13.7 °C 29.96in /  1014.4hPa Calm     70% 0.00in /  0mm
20:34 66.1 °F /  18.9 °C 56.4 °F /  13.6 °C 29.96in /  1014.4hPa Calm     71% 0.00in /  0mm
20:39 65.5 °F /  18.6 °C 56.2 °F /  13.4 °C 29.96in /  1014.4hPa Calm     72% 0.00in /  0mm
20:44 64.8 °F /  18.2 °C 56.0 °F /  13.3 °C 29.96in /  1014.4hPa Calm     73% 0.00in /  0mm
20:49 64.3 °F /  17.9 °C 55.1 °F /  12.8 °C 29.96in /  1014.4hPa Calm     72% 0.00in /  0mm
20:54 64.0 °F /  17.8 °C 55.2 °F /  12.9 °C 29.96in /  1014.4hPa Calm     73% 0.00in /  0mm
20:59 63.8 °F /  17.7 °C 55.0 °F /  12.8 °C 29.97in /  1014.8hPa Calm     73% 0.00in /  0mm
21:04 63.4 °F /  17.4 °C 55.0 °F /  12.8 °C 29.97in /  1014.8hPa Calm     74% 0.00in /  0mm
21:09 63.2 °F /  17.3 °C 54.8 °F /  12.7 °C 29.97in /  1014.8hPa Calm     74% 0.00in /  0mm
21:14 63.0 °F /  17.2 °C 55.3 °F /  12.9 °C 29.97in /  1014.8hPa Calm     76% 0.00in /  0mm
21:19 62.7 °F /  17.1 °C 55.0 °F /  12.8 °C 29.97in /  1014.8hPa Calm     76% 0.00in /  0mm
21:24 62.3 °F /  16.8 °C 54.6 °F /  12.6 °C 29.98in /  1015.1hPa Calm     76% 0.00in /  0mm
21:29 62.0 °F /  16.7 °C 54.4 °F /  12.4 °C 29.98in /  1015.1hPa Calm     76% 0.00in /  0mm
21:34 61.7 °F /  16.5 °C 54.1 °F /  12.3 °C 29.98in /  1015.1hPa Calm     76% 0.00in /  0mm
21:39 61.6 °F /  16.4 °C 54.0 °F /  12.2 °C 29.98in /  1015.1hPa Calm     76% 0.00in /  0mm
21:44 61.6 °F /  16.4 °C 53.6 °F /  12 °C 29.98in /  1015.1hPa Calm     75% 0.00in /  0mm
21:49 62.2 °F /  16.8 °C 54.2 °F /  12.3 °C 29.99in /  1015.5hPa Calm     75% 0.00in /  0mm
21:54 62.3 °F /  16.8 °C 54.3 °F /  12.4 °C 29.99in /  1015.5hPa Calm     75% 0.00in /  0mm
21:59 62.2 °F /  16.8 °C 53.8 °F /  12.1 °C 29.99in /  1015.5hPa Calm     74% 0.00in /  0mm
22:04 62.3 °F /  16.8 °C 53.5 °F /  11.9 °C 29.99in /  1015.5hPa Calm     73% 0.00in /  0mm
22:09 62.9 °F /  17.2 °C 53.7 °F /  12.1 °C 29.99in /  1015.5hPa Calm     72% 0.00in /  0mm
22:14 63.2 °F /  17.3 °C 54.8 °F /  12.7 °C 29.98in /  1015.1hPa Calm     74% 0.00in /  0mm
22:19 63.1 °F /  17.3 °C 55.4 °F /  13 °C 29.98in /  1015.1hPa Calm     76% 0.00in /  0mm
22:24 62.8 °F /  17.1 °C 55.5 °F /  13.1 °C 29.98in /  1015.1hPa Calm     77% 0.00in /  0mm
22:29 62.4 °F /  16.9 °C 54.7 °F /  12.6 °C 29.98in /  1015.1hPa Calm     76% 0.00in /  0mm
22:34 62.3 °F /  16.8 °C 55.0 °F /  12.8 °C 29.98in /  1015.1hPa Calm     77% 0.00in /  0mm
22:39 62.3 °F /  16.8 °C 55.0 °F /  12.8 °C 29.98in /  1015.1hPa Calm     77% 0.00in /  0mm
22:44 62.4 °F /  16.9 °C 54.7 °F /  12.6 °C 29.98in /  1015.1hPa Calm   1.0mph /  1.6km/h 76% 0.00in /  0mm
22:49 62.6 °F /  17 °C 54.6 °F /  12.6 °C 29.98in /  1015.1hPa Calm   1.0mph /  1.6km/h 75% 0.00in /  0mm
22:54 62.9 °F /  17.2 °C 54.9 °F /  12.7 °C 29.98in /  1015.1hPa Calm   1.0mph /  1.6km/h 75% 0.00in /  0mm
22:59 63.0 °F /  17.2 °C 54.6 °F /  12.6 °C 29.98in /  1015.1hPa Calm     74% 0.00in /  0mm
23:04 63.1 °F /  17.3 °C 54.3 °F /  12.4 °C 29.98in /  1015.1hPa Calm   2.0mph /  3.2km/h 73% 0.00in /  0mm
23:09 63.3 °F /  17.4 °C 54.5 °F /  12.5 °C 29.98in /  1015.1hPa Calm   2.0mph /  3.2km/h 73% 0.00in /  0mm
23:14 63.4 °F /  17.4 °C 54.6 °F /  12.6 °C 29.98in /  1015.1hPa Calm     73% 0.00in /  0mm
23:19 63.6 °F /  17.6 °C 54.8 °F /  12.7 °C 29.99in /  1015.5hPa Calm   2.0mph /  3.2km/h 73% 0.00in /  0mm
23:24 63.9 °F /  17.7 °C 55.1 °F /  12.8 °C 29.99in /  1015.5hPa Calm   2.0mph /  3.2km/h 73% 0.00in /  0mm
23:29 63.9 °F /  17.7 °C 55.5 °F /  13.1 °C 29.99in /  1015.5hPa Calm     74% 0.00in /  0mm
23:39 63.6 °F /  17.6 °C 55.5 °F /  13.1 °C 29.99in /  1015.5hPa Calm     75% 0.00in /  0mm
23:44 63.4 °F /  17.4 °C 55.3 °F /  12.9 °C 29.99in /  1015.5hPa Calm     75% 0.00in /  0mm
23:49 63.2 °F /  17.3 °C 55.5 °F /  13.1 °C 30.00in /  1015.8hPa Calm   1.0mph /  1.6km/h 76% 0.00in /  0mm
23:54 63.2 °F /  17.3 °C 55.2 °F /  12.9 °C 30.00in /  1015.8hPa Calm   1.0mph /  1.6km/h 75% 0.00in /  0mm
23:59 63.2 °F /  17.3 °C 55.2 °F /  12.9 °C 30.00in /  1015.8hPa Calm     75% 0.00in /  0mm
Westford Weather
Compliments of Weather Underground

 
 
Current Radar Loop:

Copyright © WestfordWeather.net 2007-2014. All rights reserved.